createdAt,value
2022-12-11T00:01:25.191Z,95521.16
2022-12-11T00:03:51.564Z,95522.91
2022-12-11T00:06:17.948Z,95516.19
2022-12-11T00:08:44.331Z,95521.34
2022-12-11T00:11:10.682Z,95525.97
2022-12-11T00:13:37.015Z,95524.38
2022-12-11T00:16:03.341Z,95521.84
2022-12-11T00:18:29.688Z,95520.75
2022-12-11T00:20:56.031Z,95518.69
2022-12-11T00:23:22.421Z,95518.25
2022-12-11T00:25:48.808Z,95513.31
2022-12-11T00:28:15.207Z,95516.06
2022-12-11T00:30:41.576Z,95512.88
2022-12-11T00:33:07.967Z,95526.78
2022-12-11T00:35:34.320Z,95520.41
2022-12-11T00:38:00.654Z,95530.44
2022-12-11T00:40:26.994Z,95532.16
2022-12-11T00:42:53.415Z,95520.28
2022-12-11T00:45:19.847Z,95525.53
2022-12-11T00:47:46.261Z,95518.03
2022-12-11T00:50:12.665Z,95520.31
2022-12-11T00:52:39.016Z,95518.50
2022-12-11T00:55:05.401Z,95515.47
2022-12-11T00:57:31.802Z,95522.91
2022-12-11T00:59:58.172Z,95525.22
2022-12-11T01:02:24.587Z,95528.94
2022-12-11T01:04:50.990Z,95532.63
2022-12-11T01:07:17.389Z,95527.72
2022-12-11T01:09:43.751Z,95522.09
2022-12-11T01:12:10.095Z,95516.75
2022-12-11T01:14:36.468Z,95517.84
2022-12-11T01:17:02.916Z,95521.22
2022-12-11T01:19:29.336Z,95521.28
2022-12-11T01:21:55.724Z,95536.81
2022-12-11T01:24:22.119Z,95546.44
2022-12-11T01:26:48.502Z,95554.19
2022-12-11T01:29:14.843Z,95551.38
2022-12-11T01:31:41.191Z,95549.19
2022-12-11T01:34:07.540Z,95544.44
2022-12-11T01:36:33.886Z,95555.00
2022-12-11T01:39:00.276Z,95552.69
2022-12-11T01:41:26.622Z,95554.47
2022-12-11T01:43:52.998Z,95557.28
2022-12-11T01:46:19.422Z,95546.19
2022-12-11T01:48:45.853Z,95554.41
2022-12-11T01:51:12.272Z,95543.72
2022-12-11T01:53:38.652Z,95544.72
2022-12-11T01:56:04.994Z,95547.72
2022-12-11T01:58:31.339Z,95542.59
2022-12-11T02:00:57.733Z,95539.06
2022-12-11T02:03:24.127Z,95542.13
2022-12-11T02:05:50.499Z,95550.47
2022-12-11T02:08:16.883Z,95545.66
2022-12-11T02:10:43.295Z,95544.31
2022-12-11T02:13:09.632Z,95553.59
2022-12-11T02:15:36.006Z,95551.44
2022-12-11T02:18:02.349Z,95552.13
2022-12-11T02:20:28.726Z,95562.16
2022-12-11T02:22:55.061Z,95567.03
2022-12-11T02:25:21.481Z,95565.38
2022-12-11T02:27:47.852Z,95565.84
2022-12-11T02:30:14.229Z,95561.38
2022-12-11T02:32:40.562Z,95555.06
2022-12-11T02:35:06.954Z,95548.53
2022-12-11T02:37:33.283Z,95565.66
2022-12-11T02:39:59.621Z,95556.84
2022-12-11T02:42:26.017Z,95567.16
2022-12-11T02:44:52.403Z,95559.13
2022-12-11T02:47:18.798Z,95555.41
2022-12-11T02:49:45.154Z,95550.13
2022-12-11T02:52:11.546Z,95561.50
2022-12-11T02:54:37.904Z,95567.00
2022-12-11T02:57:04.237Z,95572.28
2022-12-11T02:59:30.570Z,95567.59
2022-12-11T03:01:56.927Z,95560.16
2022-12-11T03:04:26.278Z,95567.16
2022-12-11T03:06:53.751Z,95579.59
2022-12-11T03:09:20.088Z,95571.56
2022-12-11T03:11:46.428Z,95570.44
2022-12-11T03:14:12.772Z,95556.38
2022-12-11T03:16:39.140Z,95561.34
2022-12-11T03:19:05.552Z,95552.09
2022-12-11T03:21:31.955Z,95553.19
2022-12-11T03:23:58.337Z,95552.97
2022-12-11T03:26:24.722Z,95556.25
2022-12-11T03:28:51.078Z,95558.41
2022-12-11T03:31:17.508Z,95559.78
2022-12-11T03:33:43.936Z,95559.44
2022-12-11T03:36:10.345Z,95560.16
2022-12-11T03:38:36.736Z,95560.31
2022-12-11T03:41:03.082Z,95567.78
2022-12-11T03:43:29.465Z,95554.97
2022-12-11T03:45:55.885Z,95560.38
2022-12-11T03:48:22.269Z,95558.09
2022-12-11T03:50:48.670Z,95560.09
2022-12-11T03:53:15.064Z,95555.41
2022-12-11T03:55:41.449Z,95562.97
2022-12-11T03:58:07.841Z,95559.63
2022-12-11T04:00:34.260Z,95567.78
2022-12-11T04:03:00.611Z,95558.66
2022-12-11T04:05:26.954Z,95558.88
2022-12-11T04:07:53.368Z,95563.84
2022-12-11T04:10:19.753Z,95556.66
2022-12-11T04:12:46.152Z,95563.81
2022-12-11T04:15:12.857Z,95565.25
2022-12-11T04:17:39.437Z,95567.00
2022-12-11T04:20:05.822Z,95567.88
2022-12-11T04:22:32.197Z,95564.75
2022-12-11T04:24:58.552Z,95551.47
2022-12-11T04:27:24.888Z,95553.13
2022-12-11T04:29:51.271Z,95566.41
2022-12-11T04:32:17.646Z,95566.69
2022-12-11T04:34:43.999Z,95567.44
2022-12-11T04:37:10.352Z,95555.84
2022-12-11T04:39:36.694Z,95550.06
2022-12-11T04:42:03.049Z,95557.41
2022-12-11T04:44:29.391Z,95566.34
2022-12-11T04:46:55.743Z,95557.69
2022-12-11T04:49:22.078Z,95564.25
2022-12-11T04:51:48.462Z,95554.03
2022-12-11T04:54:14.806Z,95559.47
2022-12-11T04:56:41.194Z,95558.50
2022-12-11T04:59:07.576Z,95554.13
2022-12-11T05:01:34.022Z,95553.41
2022-12-11T05:04:00.449Z,95553.94
2022-12-11T05:06:26.832Z,95558.69
2022-12-11T05:08:53.175Z,95550.06
2022-12-11T05:11:19.563Z,95547.06
2022-12-11T05:13:45.918Z,95541.34
2022-12-11T05:16:12.659Z,95543.03
2022-12-11T05:18:39.145Z,95537.00
2022-12-11T05:21:05.537Z,95541.09
2022-12-11T05:23:31.907Z,95544.28
2022-12-11T05:25:58.260Z,95549.25
2022-12-11T05:28:24.608Z,95545.84
2022-12-11T05:30:50.959Z,95555.53
2022-12-11T05:33:17.336Z,95556.13
2022-12-11T05:35:43.733Z,95545.97
2022-12-11T05:38:10.085Z,95550.84
2022-12-11T05:40:36.476Z,95550.84
2022-12-11T05:43:02.874Z,95549.28
2022-12-11T05:45:29.257Z,95552.44
2022-12-11T05:47:55.649Z,95550.56
2022-12-11T05:50:21.996Z,95548.75
2022-12-11T05:52:48.336Z,95544.75
2022-12-11T05:55:14.681Z,95538.16
2022-12-11T05:57:41.014Z,95541.91
2022-12-11T06:00:07.407Z,95538.78
2022-12-11T06:02:33.881Z,95529.06
2022-12-11T06:05:00.363Z,95526.50
2022-12-11T06:07:26.739Z,95519.72
2022-12-11T06:09:53.130Z,95522.94
2022-12-11T06:12:19.618Z,95522.91
2022-12-11T06:14:46.018Z,95522.84
2022-12-11T06:17:12.376Z,95523.88
2022-12-11T06:19:38.728Z,95526.97
2022-12-11T06:22:05.078Z,95522.38
2022-12-11T06:24:31.418Z,95529.56
2022-12-11T06:26:57.756Z,95536.81
2022-12-11T06:29:24.095Z,95539.03
2022-12-11T06:31:50.539Z,95542.00
2022-12-11T06:34:16.963Z,95546.25
2022-12-11T06:36:43.353Z,95543.50
2022-12-11T06:39:09.705Z,95548.22
2022-12-11T06:41:36.081Z,95536.78
2022-12-11T06:44:02.471Z,95532.09
2022-12-11T06:46:28.876Z,95543.91
2022-12-11T06:48:55.285Z,95544.16
2022-12-11T06:51:21.669Z,95542.97
2022-12-11T06:53:48.012Z,95543.03
2022-12-11T06:56:14.414Z,95546.81
2022-12-11T06:58:40.806Z,95536.34
2022-12-11T07:01:07.173Z,95535.13
2022-12-11T07:03:33.567Z,95537.50
2022-12-11T07:05:59.958Z,95540.97
2022-12-11T07:08:26.359Z,95542.00
2022-12-11T07:10:52.780Z,95543.31
2022-12-11T07:13:19.165Z,95533.22
2022-12-11T07:15:45.506Z,95543.66
2022-12-11T07:18:11.885Z,95537.69
2022-12-11T07:20:38.232Z,95536.22
2022-12-11T07:23:04.598Z,95534.97
2022-12-11T07:25:30.988Z,95536.53
2022-12-11T07:27:57.338Z,95550.41
2022-12-11T07:30:23.680Z,95549.75
2022-12-11T07:32:50.146Z,95541.69
2022-12-11T07:35:16.534Z,95549.75
2022-12-11T07:37:42.914Z,95551.41
2022-12-11T07:40:09.299Z,95556.19
2022-12-11T07:42:35.688Z,95560.84
2022-12-11T07:45:02.093Z,95554.28
2022-12-11T07:47:28.494Z,95554.59
2022-12-11T07:49:54.833Z,95549.75
2022-12-11T07:52:21.224Z,95541.84
2022-12-11T07:54:47.563Z,95550.75
2022-12-11T07:57:14.500Z,95540.59
2022-12-11T07:59:40.915Z,95548.19
2022-12-11T08:02:07.360Z,95551.94
2022-12-11T08:04:33.777Z,95543.59
2022-12-11T08:07:00.170Z,95537.63
2022-12-11T08:09:26.550Z,95541.19
2022-12-11T08:11:52.933Z,95535.41
2022-12-11T08:14:19.274Z,95545.66
2022-12-11T08:16:45.649Z,95541.00
2022-12-11T08:19:12.022Z,95545.09
2022-12-11T08:21:38.393Z,95544.69
2022-12-11T08:24:04.774Z,95547.28
2022-12-11T08:26:31.161Z,95541.16
2022-12-11T08:28:57.505Z,95538.81
2022-12-11T08:31:23.892Z,95540.00
2022-12-11T08:33:50.273Z,95545.97
2022-12-11T08:36:16.638Z,95542.38
2022-12-11T08:38:42.973Z,95540.34
2022-12-11T08:41:09.348Z,95535.56
2022-12-11T08:43:35.724Z,95539.47
2022-12-11T08:46:02.261Z,95535.16
2022-12-11T08:48:28.713Z,95531.44
2022-12-11T08:50:55.053Z,95532.41
2022-12-11T08:53:21.383Z,95534.34
2022-12-11T08:55:47.715Z,95526.47
2022-12-11T08:58:14.056Z,95529.72
2022-12-11T09:00:40.443Z,95532.03
2022-12-11T09:03:12.529Z,95532.16
2022-12-11T09:05:39.213Z,95520.84
2022-12-11T09:08:05.606Z,95524.34
2022-12-11T09:10:32.053Z,95525.56
2022-12-11T09:12:58.436Z,95523.84
2022-12-11T09:15:24.767Z,95527.66
2022-12-11T09:17:51.142Z,95525.97
2022-12-11T09:20:17.515Z,95522.84
2022-12-11T09:22:43.902Z,95521.72
2022-12-11T09:25:10.578Z,95516.34
2022-12-11T09:27:37.191Z,95511.31
2022-12-11T09:30:03.585Z,95522.25
2022-12-11T09:32:29.950Z,95517.94
2022-12-11T09:34:56.324Z,95509.06
2022-12-11T09:37:22.709Z,95515.28
2022-12-11T09:39:49.048Z,95515.28
2022-12-11T09:42:15.427Z,95519.09
2022-12-11T09:44:41.839Z,95519.91
2022-12-11T09:47:08.252Z,95524.66
2022-12-11T09:49:34.652Z,95519.69
2022-12-11T09:52:00.995Z,95529.84
2022-12-11T09:54:27.330Z,95538.00
2022-12-11T09:56:53.681Z,95534.06
2022-12-11T09:59:20.020Z,95539.25
2022-12-11T10:01:46.447Z,95540.88
2022-12-11T10:04:12.843Z,95540.50
2022-12-11T10:06:39.196Z,95531.91
2022-12-11T10:09:05.550Z,95531.06
2022-12-11T10:11:31.916Z,95542.78
2022-12-11T10:13:58.253Z,95529.63
2022-12-11T10:16:24.590Z,95525.63
2022-12-11T10:18:50.915Z,95520.09
2022-12-11T10:21:17.333Z,95527.97
2022-12-11T10:23:43.709Z,95519.16
2022-12-11T10:26:10.049Z,95519.03
2022-12-11T10:28:36.446Z,95516.41
2022-12-11T10:31:02.846Z,95519.66
2022-12-11T10:33:29.217Z,95512.31
2022-12-11T10:35:55.552Z,95514.31
2022-12-11T10:38:21.939Z,95522.00
2022-12-11T10:40:48.285Z,95511.25
2022-12-11T10:43:14.675Z,95503.81
2022-12-11T10:45:41.020Z,95502.72
2022-12-11T10:48:07.389Z,95501.72
2022-12-11T10:50:33.794Z,95498.06
2022-12-11T10:53:00.148Z,95500.34
2022-12-11T10:55:26.493Z,95499.38
2022-12-11T10:57:52.844Z,95489.38
2022-12-11T11:00:19.212Z,95492.22
2022-12-11T11:02:45.615Z,95485.59
2022-12-11T11:05:12.623Z,95494.53
2022-12-11T11:07:39.240Z,95489.81
2022-12-11T11:10:05.626Z,95485.31
2022-12-11T11:12:31.974Z,95475.28
2022-12-11T11:14:58.378Z,95482.09
2022-12-11T11:17:24.761Z,95467.25
2022-12-11T11:19:51.150Z,95476.16
2022-12-11T11:22:17.537Z,95476.13
2022-12-11T11:24:43.924Z,95471.66
2022-12-11T11:27:14.037Z,95473.34
2022-12-11T11:29:40.522Z,95473.00
2022-12-11T11:32:06.900Z,95471.63
2022-12-11T11:34:33.260Z,95468.38
2022-12-11T11:36:59.640Z,95470.13
2022-12-11T11:39:25.991Z,95465.38
2022-12-11T11:41:52.589Z,95466.22
2022-12-11T11:44:18.940Z,95461.63
2022-12-11T11:46:45.333Z,95457.34
2022-12-11T11:49:11.695Z,95457.69
2022-12-11T11:51:38.035Z,95471.72
2022-12-11T11:54:04.382Z,95467.38
2022-12-11T11:56:30.734Z,95457.69
2022-12-11T11:58:57.102Z,95461.09
2022-12-11T12:01:23.489Z,95446.19
2022-12-11T12:03:49.872Z,95446.91
2022-12-11T12:06:16.263Z,95442.63
2022-12-11T12:08:42.616Z,95438.19
2022-12-11T12:11:08.998Z,95438.63
2022-12-11T12:13:50.833Z,95425.66
2022-12-11T12:16:50.477Z,95430.56
2022-12-11T12:19:03.562Z,95427.59
2022-12-11T12:21:29.946Z,95427.94
2022-12-11T12:23:56.334Z,95432.22
2022-12-11T12:26:22.773Z,95426.38
2022-12-11T12:28:49.159Z,95430.88
2022-12-11T12:31:15.545Z,95429.84
2022-12-11T12:33:41.901Z,95435.41
2022-12-11T12:36:08.273Z,95439.13
2022-12-11T12:38:34.658Z,95434.25
2022-12-11T12:41:01.038Z,95428.84
2022-12-11T12:43:27.436Z,95422.13
2022-12-11T12:45:53.870Z,95427.91
2022-12-11T12:48:20.251Z,95426.59
2022-12-11T12:50:46.659Z,95425.38
2022-12-11T12:53:13.056Z,95416.09
2022-12-11T12:55:39.410Z,95416.72
2022-12-11T12:58:05.744Z,95418.69
2022-12-11T13:00:32.114Z,95420.38
2022-12-11T13:02:58.464Z,95422.53
2022-12-11T13:05:24.847Z,95425.09
2022-12-11T13:07:54.448Z,95420.44
2022-12-11T13:10:21.085Z,95423.97
2022-12-11T13:12:47.825Z,95424.34
2022-12-11T13:15:14.166Z,95417.59
2022-12-11T13:17:40.500Z,95408.91
2022-12-11T13:20:06.843Z,95401.84
2022-12-11T13:22:33.177Z,95404.88
2022-12-11T13:24:59.568Z,95408.44
2022-12-11T13:27:25.898Z,95407.97
2022-12-11T13:29:52.289Z,95403.38
2022-12-11T13:32:18.680Z,95396.16
2022-12-11T13:34:45.061Z,95400.47
2022-12-11T13:37:11.462Z,95399.16
2022-12-11T13:39:37.847Z,95403.31
2022-12-11T13:42:04.236Z,95393.88
2022-12-11T13:44:30.582Z,95394.41
2022-12-11T13:46:56.951Z,95399.84
2022-12-11T13:49:23.350Z,95390.47
2022-12-11T13:51:49.718Z,95395.88
2022-12-11T13:54:17.218Z,95396.09
2022-12-11T13:56:43.906Z,95392.66
2022-12-11T13:59:10.273Z,95394.09
2022-12-11T14:01:36.617Z,95395.34
2022-12-11T14:04:03.001Z,95393.53
2022-12-11T14:06:29.372Z,95391.44
2022-12-11T14:08:55.764Z,95398.50
2022-12-11T14:11:22.136Z,95399.09
2022-12-11T14:13:48.508Z,95384.75
2022-12-11T14:16:16.814Z,95396.59
2022-12-11T14:18:43.288Z,95387.22
2022-12-11T14:21:09.635Z,95395.78
2022-12-11T14:23:36.017Z,95404.00
2022-12-11T14:26:02.388Z,95392.22
2022-12-11T14:28:28.770Z,95404.34
2022-12-11T14:30:55.166Z,95403.75
2022-12-11T14:33:21.549Z,95402.28
2022-12-11T14:35:47.887Z,95398.69
2022-12-11T14:38:14.244Z,95403.97
2022-12-11T14:40:40.590Z,95407.28
2022-12-11T14:43:06.939Z,95410.06
2022-12-11T14:45:33.359Z,95408.41
2022-12-11T14:47:59.801Z,95406.47
2022-12-11T14:50:26.143Z,95406.63
2022-12-11T14:52:52.479Z,95407.09
2022-12-11T14:55:18.839Z,95407.66
2022-12-11T14:57:45.202Z,95410.75
2022-12-11T15:00:11.801Z,95403.03
2022-12-11T15:02:38.436Z,95420.63
2022-12-11T15:05:04.822Z,95414.91
2022-12-11T15:07:31.173Z,95412.78
2022-12-11T15:09:57.570Z,95410.47
2022-12-11T15:12:23.963Z,95418.47
2022-12-11T15:14:50.364Z,95411.59
2022-12-11T15:17:16.791Z,95416.06
2022-12-11T15:19:43.199Z,95414.59
2022-12-11T15:22:09.574Z,95426.78
2022-12-11T15:24:35.947Z,95421.75
2022-12-11T15:27:02.303Z,95426.78
2022-12-11T15:29:28.657Z,95422.03
2022-12-11T15:31:55.027Z,95429.63
2022-12-11T15:34:21.375Z,95426.63
2022-12-11T15:36:47.799Z,95426.63
2022-12-11T15:39:14.172Z,95438.81
2022-12-11T15:41:40.566Z,95428.66
2022-12-11T15:44:06.917Z,95438.72
2022-12-11T15:46:33.328Z,95425.19
2022-12-11T15:48:59.703Z,95431.72
2022-12-11T15:51:26.046Z,95435.22
2022-12-11T15:53:52.381Z,95426.28
2022-12-11T15:56:18.757Z,95436.72
2022-12-11T15:58:45.150Z,95438.81
2022-12-11T16:01:11.589Z,95437.38
2022-12-11T16:03:38.000Z,95436.31
2022-12-11T16:06:04.427Z,95438.16
2022-12-11T16:08:30.887Z,95438.63
2022-12-11T16:10:57.280Z,95434.47
2022-12-11T16:13:23.625Z,95439.56
2022-12-11T16:15:50.030Z,95439.59
2022-12-11T16:18:16.477Z,95443.34
2022-12-11T16:20:42.868Z,95445.94
2022-12-11T16:23:09.239Z,95450.19
2022-12-11T16:25:35.607Z,95447.06
2022-12-11T16:28:01.992Z,95452.78
2022-12-11T16:30:28.375Z,95441.50
2022-12-11T16:32:54.770Z,95459.63
2022-12-11T16:35:21.122Z,95450.16
2022-12-11T16:37:47.459Z,95453.63
2022-12-11T16:40:13.873Z,95452.59
2022-12-11T16:42:40.223Z,95455.38
2022-12-11T16:45:06.565Z,95449.09
2022-12-11T16:47:32.982Z,95445.25
2022-12-11T16:49:59.370Z,95444.59
2022-12-11T16:52:25.723Z,95444.69
2022-12-11T16:54:52.114Z,95446.59
2022-12-11T16:57:18.469Z,95441.94
2022-12-11T16:59:44.825Z,95443.75
2022-12-11T17:02:11.164Z,95444.50
2022-12-11T17:04:37.552Z,95456.31
2022-12-11T17:07:03.910Z,95459.13
2022-12-11T17:09:30.286Z,95460.47
2022-12-11T17:11:56.672Z,95458.94
2022-12-11T17:14:23.054Z,95464.88
2022-12-11T17:16:49.402Z,95472.41
2022-12-11T17:19:15.749Z,95471.38
2022-12-11T17:21:44.798Z,95468.31
2022-12-11T17:24:14.829Z,95469.13
2022-12-11T17:26:41.187Z,95471.75
2022-12-11T17:29:07.657Z,95466.94
2022-12-11T17:31:34.164Z,95466.00
2022-12-11T17:34:00.611Z,95459.25
2022-12-11T17:36:27.004Z,95463.34
2022-12-11T17:38:53.405Z,95459.69
2022-12-11T17:41:21.032Z,95465.88
2022-12-11T17:43:47.590Z,95458.13
2022-12-11T17:46:13.975Z,95471.06
2022-12-11T17:48:40.365Z,95461.09
2022-12-11T17:51:06.696Z,95469.69
2022-12-11T17:53:33.057Z,95466.88
2022-12-11T17:55:59.474Z,95457.34
2022-12-11T17:58:25.856Z,95455.56
2022-12-11T18:00:52.233Z,95456.94
2022-12-11T18:03:18.633Z,95454.94
2022-12-11T18:05:45.034Z,95458.94
2022-12-11T18:08:11.485Z,95452.19
2022-12-11T18:10:37.846Z,95461.72
2022-12-11T18:13:04.190Z,95461.69
2022-12-11T18:15:30.577Z,95462.13
2022-12-11T18:17:56.932Z,95461.09
2022-12-11T18:20:23.288Z,95462.47
2022-12-11T18:22:49.675Z,95464.84
2022-12-11T18:25:16.453Z,95472.56
2022-12-11T18:27:43.109Z,95472.34
2022-12-11T18:30:09.467Z,95469.78
2022-12-11T18:32:35.818Z,95471.63
2022-12-11T18:35:02.201Z,95461.47
2022-12-11T18:37:28.577Z,95472.63
2022-12-11T18:39:54.926Z,95468.44
2022-12-11T18:42:32.874Z,95472.91
2022-12-11T18:44:59.630Z,95481.78
2022-12-11T18:47:26.011Z,95472.97
2022-12-11T18:49:52.557Z,95474.13
2022-12-11T18:52:18.984Z,95486.41
2022-12-11T18:54:45.364Z,95482.41
2022-12-11T18:57:11.712Z,95483.50
2022-12-11T18:59:38.050Z,95492.06
2022-12-11T19:02:04.462Z,95488.44
2022-12-11T19:04:30.861Z,95489.53
2022-12-11T19:06:57.254Z,95486.88
2022-12-11T19:09:23.636Z,95481.13
2022-12-11T19:11:49.981Z,95498.41
2022-12-11T19:14:16.320Z,95488.28
2022-12-11T19:16:42.663Z,95491.47
2022-12-11T19:19:09.007Z,95494.09
2022-12-11T19:21:35.410Z,95491.81
2022-12-11T19:24:01.833Z,95490.63
2022-12-11T19:26:28.223Z,95493.13
2022-12-11T19:28:54.619Z,95495.56
2022-12-11T19:31:20.985Z,95487.44
2022-12-11T19:33:47.565Z,95486.13
2022-12-11T19:36:13.899Z,95483.28
2022-12-11T19:38:40.240Z,95491.88
2022-12-11T19:41:06.707Z,95480.00
2022-12-11T19:43:33.142Z,95486.56
2022-12-11T19:45:59.483Z,95490.00
2022-12-11T19:48:25.891Z,95491.94
2022-12-11T19:50:52.246Z,95495.38
2022-12-11T19:53:18.588Z,95482.97
2022-12-11T19:55:44.968Z,95485.84
2022-12-11T19:58:11.319Z,95479.19
2022-12-11T20:00:37.708Z,95484.91
2022-12-11T20:03:04.121Z,95489.06
2022-12-11T20:05:30.470Z,95495.44
2022-12-11T20:08:02.102Z,95490.34
2022-12-11T20:10:40.861Z,95487.53
2022-12-11T20:13:07.248Z,95492.31
2022-12-11T20:15:33.741Z,95496.69
2022-12-11T20:18:00.234Z,95487.84
2022-12-11T20:20:26.635Z,95502.22
2022-12-11T20:22:53.030Z,95504.41
2022-12-11T20:25:19.424Z,95497.47
2022-12-11T20:27:45.871Z,95497.09
2022-12-11T20:30:12.234Z,95497.44
2022-12-11T20:32:38.567Z,95486.31
2022-12-11T20:35:04.989Z,95492.28
2022-12-11T20:37:31.339Z,95494.69
2022-12-11T20:39:57.709Z,95487.75
2022-12-11T20:42:24.095Z,95481.16
2022-12-11T20:44:50.475Z,95473.38
2022-12-11T20:47:16.814Z,95485.00
2022-12-11T20:49:43.206Z,95483.44
2022-12-11T20:52:09.588Z,95485.75
2022-12-11T20:54:35.944Z,95480.56
2022-12-11T20:57:02.337Z,95480.97
2022-12-11T20:59:28.878Z,95478.19
2022-12-11T21:01:55.260Z,95475.59
2022-12-11T21:04:21.652Z,95481.06
2022-12-11T21:06:48.046Z,95483.81
2022-12-11T21:09:14.400Z,95472.84
2022-12-11T21:11:40.817Z,95480.41
2022-12-11T21:14:07.165Z,95473.84
2022-12-11T21:16:33.551Z,95477.81
2022-12-11T21:18:59.957Z,95471.91
2022-12-11T21:21:26.309Z,95479.94
2022-12-11T21:23:52.647Z,95479.25
2022-12-11T21:26:19.012Z,95472.97
2022-12-11T21:28:45.406Z,95467.44
2022-12-11T21:31:11.836Z,95474.03
2022-12-11T21:33:38.219Z,95478.81
2022-12-11T21:36:04.557Z,95485.59
2022-12-11T21:38:30.900Z,95472.53
2022-12-11T21:40:57.231Z,95480.06
2022-12-11T21:43:23.616Z,95475.38
2022-12-11T21:46:01.056Z,95476.13
2022-12-11T21:48:28.021Z,95484.47
2022-12-11T21:50:54.415Z,95476.59
2022-12-11T21:53:20.810Z,95485.09
2022-12-11T21:55:47.230Z,95484.94
2022-12-11T21:58:13.584Z,95491.38
2022-12-11T22:00:39.971Z,95496.25
2022-12-11T22:03:06.331Z,95480.47
2022-12-11T22:05:32.675Z,95487.28
2022-12-11T22:07:59.138Z,95481.44
2022-12-11T22:10:25.553Z,95484.03
2022-12-11T22:12:51.964Z,95482.94
2022-12-11T22:15:18.367Z,95483.03
2022-12-11T22:17:44.748Z,95490.53
2022-12-11T22:20:11.096Z,95495.34
2022-12-11T22:22:37.427Z,95495.97
2022-12-11T22:25:03.774Z,95495.97
2022-12-11T22:27:30.181Z,95485.91
2022-12-11T22:29:56.581Z,95487.03
2022-12-11T22:32:22.928Z,95483.47
2022-12-11T22:34:49.269Z,95481.50
2022-12-11T22:37:15.632Z,95487.41
2022-12-11T22:39:42.012Z,95494.13
2022-12-11T22:42:08.412Z,95484.44
2022-12-11T22:44:34.795Z,95485.13
2022-12-11T22:47:01.186Z,95486.91
2022-12-11T22:49:27.549Z,95487.28
2022-12-11T22:51:53.878Z,95491.75
2022-12-11T22:54:20.300Z,95492.59
2022-12-11T22:56:46.665Z,95490.91
2022-12-11T22:59:13.046Z,95495.63
2022-12-11T23:01:39.394Z,95487.97
2022-12-11T23:04:05.754Z,95494.00
2022-12-11T23:06:32.129Z,95480.19
2022-12-11T23:08:58.614Z,95482.97
2022-12-11T23:11:25.071Z,95492.91
2022-12-11T23:13:51.434Z,95490.94
2022-12-11T23:16:17.829Z,95492.81
2022-12-11T23:18:44.231Z,95489.34
2022-12-11T23:21:10.566Z,95492.00
2022-12-11T23:23:36.905Z,95500.09
2022-12-11T23:26:03.241Z,95502.97
2022-12-11T23:28:29.584Z,95496.59
2022-12-11T23:30:56.015Z,95506.75
2022-12-11T23:33:22.446Z,95500.16
2022-12-11T23:35:48.849Z,95505.34
2022-12-11T23:38:15.187Z,95500.59
2022-12-11T23:40:41.536Z,95502.16
2022-12-11T23:43:07.920Z,95506.09
2022-12-11T23:45:34.263Z,95501.97
2022-12-11T23:48:00.638Z,95507.03
2022-12-11T23:50:27.024Z,95508.28
2022-12-11T23:52:53.385Z,95498.81
2022-12-11T23:55:19.770Z,95504.00
2022-12-11T23:57:46.117Z,95498.16
